createdAt,value
2023-05-26T00:00:00.522Z,43.8060
2023-05-26T00:01:02.788Z,43.8060
2023-05-26T00:02:05.028Z,43.8060
2023-05-26T00:03:07.478Z,43.7720
2023-05-26T00:04:09.553Z,43.7470
2023-05-26T00:05:11.641Z,43.7630
2023-05-26T00:06:11.703Z,43.7530
2023-05-26T00:07:13.866Z,43.7570
2023-05-26T00:08:16.101Z,43.7500
2023-05-26T00:09:18.292Z,43.7500
2023-05-26T00:10:20.481Z,43.8040
2023-05-26T00:11:22.702Z,43.8040
2023-05-26T00:12:24.875Z,43.7850
2023-05-26T00:13:27.081Z,43.7940
2023-05-26T00:14:29.239Z,43.7790
2023-05-26T00:15:31.449Z,43.7490
2023-05-26T00:16:33.667Z,43.7010
2023-05-26T00:17:35.879Z,43.7090
2023-05-26T00:18:38.091Z,43.7170
2023-05-26T00:19:40.332Z,43.7370
2023-05-26T00:20:42.657Z,43.7330
2023-05-26T00:21:44.750Z,43.7330
2023-05-26T00:22:44.810Z,43.7210
2023-05-26T00:23:47.034Z,43.7150
2023-05-26T00:24:49.198Z,43.7090
2023-05-26T00:25:51.404Z,43.7150
2023-05-26T00:26:53.610Z,43.6660
2023-05-26T00:27:55.848Z,43.6690
2023-05-26T00:28:58.044Z,43.6660
2023-05-26T00:30:00.216Z,43.6660
2023-05-26T00:31:02.479Z,43.6830
2023-05-26T00:32:04.596Z,43.6760
2023-05-26T00:33:06.822Z,43.6900
2023-05-26T00:34:09.037Z,43.7030
2023-05-26T00:35:11.202Z,43.6760
2023-05-26T00:36:13.406Z,43.6660
2023-05-26T00:37:15.594Z,43.6840
2023-05-26T00:38:17.828Z,43.6640
2023-05-26T00:39:20.081Z,43.6640
2023-05-26T00:40:22.340Z,43.6100
2023-05-26T00:41:24.560Z,43.5920
2023-05-26T00:42:26.809Z,43.5740
2023-05-26T00:43:29.022Z,43.5880
2023-05-26T00:44:31.263Z,43.5830
2023-05-26T00:45:31.325Z,43.5880
2023-05-26T00:46:33.542Z,43.5880
2023-05-26T00:47:35.774Z,43.5980
2023-05-26T00:48:37.947Z,43.5860
2023-05-26T00:49:40.177Z,43.6100
2023-05-26T00:50:42.354Z,43.5920
2023-05-26T00:51:44.515Z,43.6300
2023-05-26T00:52:46.707Z,43.5990
2023-05-26T00:53:48.862Z,43.5870
2023-05-26T00:54:51.090Z,43.5980
2023-05-26T00:55:53.298Z,43.5870
2023-05-26T00:56:55.571Z,43.5690
2023-05-26T00:57:57.766Z,43.5810
2023-05-26T00:59:00.032Z,43.5850
2023-05-26T01:00:02.230Z,43.5850
2023-05-26T01:01:02.362Z,43.5910
2023-05-26T01:02:04.512Z,43.6190
2023-05-26T01:03:06.812Z,43.6090
2023-05-26T01:04:08.969Z,43.6030
2023-05-26T01:05:11.278Z,43.5590
2023-05-26T01:06:13.345Z,43.5530
2023-05-26T01:07:15.588Z,43.5310
2023-05-26T01:08:17.818Z,43.5250
2023-05-26T01:09:20.061Z,43.4890
2023-05-26T01:10:22.333Z,43.4890
2023-05-26T01:11:24.531Z,43.5040
2023-05-26T01:12:26.791Z,43.4980
2023-05-26T01:13:26.905Z,43.5020
2023-05-26T01:14:29.192Z,43.5350
2023-05-26T01:15:31.312Z,43.5130
2023-05-26T01:16:33.496Z,43.5040
2023-05-26T01:17:35.665Z,43.4860
2023-05-26T01:18:37.806Z,43.4860
2023-05-26T01:19:40.005Z,43.5350
2023-05-26T01:20:42.389Z,43.5400
2023-05-26T01:21:44.431Z,43.5330
2023-05-26T01:22:46.656Z,43.5020
2023-05-26T01:23:48.905Z,43.4900
2023-05-26T01:24:51.033Z,43.4640
2023-05-26T01:25:53.296Z,43.4780
2023-05-26T01:26:55.500Z,43.4640
2023-05-26T01:27:57.753Z,43.4620
2023-05-26T01:28:57.849Z,43.4880
2023-05-26T01:30:00.161Z,43.4400
2023-05-26T01:31:02.218Z,43.4400
2023-05-26T01:32:04.370Z,43.4380
2023-05-26T01:33:06.628Z,43.4560
2023-05-26T01:34:08.808Z,43.4050
2023-05-26T01:35:10.868Z,43.4230
2023-05-26T01:36:13.052Z,43.4230
2023-05-26T01:37:15.180Z,43.4350
2023-05-26T01:38:17.379Z,43.4720
2023-05-26T01:39:19.557Z,43.5020
2023-05-26T01:40:21.746Z,43.5020
2023-05-26T01:41:23.962Z,43.4400
2023-05-26T01:42:31.321Z,43.4480
2023-05-26T01:43:28.259Z,43.4540
2023-05-26T01:44:30.482Z,43.4110
2023-05-26T01:45:32.700Z,43.3810
2023-05-26T01:46:34.945Z,43.3870
2023-05-26T01:47:37.201Z,43.3810
2023-05-26T01:48:39.293Z,43.3730
2023-05-26T01:49:41.494Z,43.3810
2023-05-26T01:50:43.710Z,43.3990
2023-05-26T01:51:46.053Z,43.3670
2023-05-26T01:52:46.017Z,43.3670
2023-05-26T01:53:48.269Z,43.3750
2023-05-26T01:54:50.466Z,43.3750
2023-05-26T01:55:52.619Z,43.3750
2023-05-26T01:56:54.773Z,43.3650
2023-05-26T01:57:56.926Z,43.3710
2023-05-26T01:58:59.097Z,43.3430
2023-05-26T02:00:01.290Z,43.3380
2023-05-26T02:01:03.472Z,43.3260
2023-05-26T02:02:05.901Z,43.3360
2023-05-26T02:03:07.935Z,43.3360
2023-05-26T02:04:10.092Z,43.3440
2023-05-26T02:05:12.281Z,43.3560
2023-05-26T02:06:14.530Z,43.3720
2023-05-26T02:07:16.774Z,43.3380
2023-05-26T02:08:18.947Z,43.3260
2023-05-26T02:09:21.156Z,43.3260
2023-05-26T02:10:23.365Z,43.3480
2023-05-26T02:11:23.415Z,43.3220
2023-05-26T02:12:25.629Z,43.2980
2023-05-26T02:13:27.754Z,43.3200
2023-05-26T02:15:10.804Z,43.3660
2023-05-26T02:16:12.979Z,43.3600
2023-05-26T02:17:15.095Z,43.3280
2023-05-26T02:18:17.298Z,43.3160
2023-05-26T02:19:19.479Z,43.2870
2023-05-26T02:20:21.735Z,43.2690
2023-05-26T02:21:23.862Z,43.2690
2023-05-26T02:22:26.080Z,43.2690
2023-05-26T02:23:26.082Z,43.2690
2023-05-26T02:24:28.253Z,43.2870
2023-05-26T02:25:30.409Z,43.2630
2023-05-26T02:26:32.615Z,43.2830
2023-05-26T02:28:41.405Z,43.3480
2023-05-26T02:29:43.459Z,43.3180
2023-05-26T02:30:45.651Z,43.2970
2023-05-26T02:31:47.812Z,43.2930
2023-05-26T02:32:49.937Z,43.2470
2023-05-26T02:33:52.081Z,43.2390
2023-05-26T02:34:54.178Z,43.2570
2023-05-26T02:35:56.272Z,43.2330
2023-05-26T02:36:58.388Z,43.2330
2023-05-26T02:38:00.490Z,43.2390
2023-05-26T02:39:02.660Z,43.2190
2023-05-26T02:40:04.776Z,43.1920
2023-05-26T02:41:06.915Z,43.1800
2023-05-26T02:42:09.049Z,43.1280
2023-05-26T02:43:11.198Z,43.1520
2023-05-26T02:44:13.378Z,43.1310
2023-05-26T02:45:15.504Z,43.1250
2023-05-26T02:46:17.698Z,43.1400
2023-05-26T02:47:19.801Z,43.1340
2023-05-26T02:48:21.820Z,43.1220
2023-05-26T02:49:21.845Z,43.1190
2023-05-26T02:50:23.904Z,43.1280
2023-05-26T02:51:26.031Z,43.1110
2023-05-26T02:52:28.168Z,43.0460
2023-05-26T02:53:30.348Z,43.0580
2023-05-26T02:54:32.482Z,43.0770
2023-05-26T02:55:34.575Z,43.0930
2023-05-26T02:56:36.740Z,43.0770
2023-05-26T02:57:38.895Z,43.0670
2023-05-26T02:58:41.075Z,43.0890
2023-05-26T02:59:43.307Z,43.1010
2023-05-26T03:00:45.463Z,43.0800
2023-05-26T03:01:47.803Z,43.0830
2023-05-26T03:02:50.027Z,43.0890
2023-05-26T03:03:52.116Z,43.0600
2023-05-26T03:04:54.251Z,43.0730
2023-05-26T03:05:56.433Z,43.0460
2023-05-26T03:06:58.579Z,43.0280
2023-05-26T03:08:00.732Z,43.0600
2023-05-26T03:09:02.862Z,43.0680
2023-05-26T03:10:02.887Z,43.0930
2023-05-26T03:11:09.429Z,43.0800
2023-05-26T03:12:07.162Z,43.1610
2023-05-26T03:13:09.307Z,43.0730
2023-05-26T03:14:11.504Z,43.0400
2023-05-26T03:15:13.728Z,43.0280
2023-05-26T03:16:15.887Z,43.0260
2023-05-26T03:17:18.104Z,43.0380
2023-05-26T03:18:20.324Z,43.0740
2023-05-26T03:19:22.526Z,43.0990
2023-05-26T03:20:24.770Z,43.0870
2023-05-26T03:21:46.534Z,43.0620
2023-05-26T03:22:39.783Z,43.1270
2023-05-26T03:23:29.249Z,43.1270
2023-05-26T03:24:31.460Z,43.1020
2023-05-26T03:25:33.696Z,43.0720
2023-05-26T03:26:35.849Z,43.0660
2023-05-26T03:27:38.035Z,43.0740
2023-05-26T03:28:40.215Z,43.0620
2023-05-26T03:29:42.411Z,43.0440
2023-05-26T03:30:44.640Z,43.0500
2023-05-26T03:31:46.746Z,43.0320
2023-05-26T03:32:48.965Z,43.0060
2023-05-26T03:33:51.082Z,42.9490
2023-05-26T03:34:53.243Z,42.9590
2023-05-26T03:35:55.469Z,43.0200
2023-05-26T03:36:57.634Z,43.0800
2023-05-26T03:37:59.821Z,43.1810
2023-05-26T03:39:01.986Z,43.1870
2023-05-26T03:40:04.195Z,43.2500
2023-05-26T03:41:06.423Z,43.2720
2023-05-26T03:42:06.435Z,43.2820
2023-05-26T03:43:08.581Z,43.2760
2023-05-26T03:44:10.718Z,43.2970
2023-05-26T03:45:12.868Z,43.3060
2023-05-26T03:46:15.076Z,43.2450
2023-05-26T03:47:17.234Z,43.2010
2023-05-26T03:48:19.433Z,43.2270
2023-05-26T03:49:21.645Z,43.2150
2023-05-26T03:50:23.845Z,43.2290
2023-05-26T03:51:26.104Z,43.2120
2023-05-26T03:52:28.274Z,43.1940
2023-05-26T03:53:30.437Z,43.2310
2023-05-26T03:54:32.627Z,43.2310
2023-05-26T03:55:34.816Z,43.2150
2023-05-26T03:56:37.050Z,43.1480
2023-05-26T03:57:39.186Z,43.1600
2023-05-26T03:58:41.355Z,43.1130
2023-05-26T03:59:43.476Z,43.1010
2023-05-26T04:00:45.657Z,43.1150
2023-05-26T04:01:47.932Z,43.1680
2023-05-26T04:02:50.000Z,43.2020
2023-05-26T04:03:52.127Z,43.2020
2023-05-26T04:04:52.125Z,43.2160
2023-05-26T04:05:54.213Z,43.1680
2023-05-26T04:06:56.358Z,43.1260
2023-05-26T04:07:58.464Z,43.0710
2023-05-26T04:09:00.623Z,43.0470
2023-05-26T04:10:02.781Z,43.0470
2023-05-26T04:11:04.946Z,43.0410
2023-05-26T04:12:07.115Z,43.0020
2023-05-26T04:13:09.271Z,42.9820
2023-05-26T04:14:11.466Z,42.9820
2023-05-26T04:15:13.674Z,42.9880
2023-05-26T04:16:15.903Z,42.9700
2023-05-26T04:17:18.120Z,42.9580
2023-05-26T04:18:20.262Z,42.9820
2023-05-26T04:19:59.054Z,43.0810
2023-05-26T04:21:01.069Z,43.0810
2023-05-26T04:22:03.202Z,43.1040
2023-05-26T04:23:05.330Z,43.1440
2023-05-26T04:24:07.442Z,43.1670
2023-05-26T04:25:09.566Z,43.1990
2023-05-26T04:26:11.719Z,43.1990
2023-05-26T04:27:13.862Z,43.2660
2023-05-26T04:28:16.087Z,43.2900
2023-05-26T04:29:18.188Z,43.2900
2023-05-26T04:30:20.367Z,43.2900
2023-05-26T04:31:22.563Z,43.2800
2023-05-26T04:32:24.744Z,43.2620
2023-05-26T04:33:26.848Z,43.2620
2023-05-26T04:34:29.005Z,43.2680
2023-05-26T04:35:31.495Z,43.2540
2023-05-26T04:36:33.240Z,43.3000
2023-05-26T04:37:35.385Z,43.3000
2023-05-26T04:38:37.568Z,43.2880
2023-05-26T04:39:39.700Z,43.2800
2023-05-26T04:40:41.868Z,43.2840
2023-05-26T04:41:43.967Z,43.2540
2023-05-26T04:42:46.083Z,43.2540
2023-05-26T04:43:48.267Z,43.2600
2023-05-26T04:44:50.434Z,43.2660
2023-05-26T04:45:52.638Z,43.2540
2023-05-26T04:46:54.792Z,43.2280
2023-05-26T04:47:56.982Z,43.2400
2023-05-26T04:48:59.222Z,43.2540
2023-05-26T04:50:01.299Z,43.2660
2023-05-26T04:51:03.491Z,43.2600
2023-05-26T04:52:05.631Z,43.2600
2023-05-26T04:53:07.813Z,43.2300
2023-05-26T04:54:10.019Z,43.2360
2023-05-26T04:55:12.127Z,43.2960
2023-05-26T04:56:14.200Z,43.3060
2023-05-26T04:57:16.305Z,43.3210
2023-05-26T04:58:18.416Z,43.3210
2023-05-26T04:59:20.623Z,43.2830
2023-05-26T05:00:22.790Z,43.2710
2023-05-26T05:01:25.023Z,43.2830
2023-05-26T05:02:27.309Z,43.2360
2023-05-26T05:03:29.509Z,43.2240
2023-05-26T05:04:31.647Z,43.2300
2023-05-26T05:05:33.832Z,43.2300
2023-05-26T05:06:36.052Z,43.2300
2023-05-26T05:07:38.256Z,43.2420
2023-05-26T05:08:40.481Z,43.2360
2023-05-26T05:09:40.592Z,43.2130
2023-05-26T05:10:42.792Z,43.1950
2023-05-26T05:11:45.026Z,43.2160
2023-05-26T05:12:47.241Z,43.2400
2023-05-26T05:13:49.424Z,43.2280
2023-05-26T05:14:51.633Z,43.1950
2023-05-26T05:15:53.817Z,43.2100
2023-05-26T05:16:55.975Z,43.2100
2023-05-26T05:17:58.245Z,43.2220
2023-05-26T05:19:00.354Z,43.2400
2023-05-26T05:20:15.190Z,43.2100
2023-05-26T05:21:04.742Z,43.2220
2023-05-26T05:22:04.697Z,43.2280
2023-05-26T05:23:06.822Z,43.2040
2023-05-26T05:24:08.995Z,43.2160
2023-05-26T05:25:11.278Z,43.2220
2023-05-26T05:26:13.273Z,43.2280
2023-05-26T05:27:15.397Z,43.2100
2023-05-26T05:28:17.548Z,43.2400
2023-05-26T05:29:19.721Z,43.2720
2023-05-26T05:30:21.971Z,43.3060
2023-05-26T05:31:24.073Z,43.3080
2023-05-26T05:32:26.382Z,43.3170
2023-05-26T05:33:28.442Z,43.3290
2023-05-26T05:34:30.584Z,43.3410
2023-05-26T05:35:32.837Z,43.3610
2023-05-26T05:36:32.747Z,43.3570
2023-05-26T05:37:34.932Z,43.3390
2023-05-26T05:38:37.017Z,43.3450
2023-05-26T05:39:39.109Z,43.3570
2023-05-26T05:40:39.161Z,43.3630
2023-05-26T05:41:41.282Z,43.3630
2023-05-26T05:42:43.450Z,43.4120
2023-05-26T05:43:45.618Z,43.4820
2023-05-26T05:46:03.090Z,43.8430
2023-05-26T05:47:05.120Z,43.9650
2023-05-26T05:48:07.310Z,44.0870
2023-05-26T05:49:09.434Z,44.2180
2023-05-26T05:50:11.605Z,44.3260
2023-05-26T05:51:11.692Z,44.4160
2023-05-26T05:52:13.807Z,44.4940
2023-05-26T05:53:16.001Z,44.5800
2023-05-26T05:54:18.194Z,44.6340
2023-05-26T05:55:20.427Z,44.7370
2023-05-26T05:56:22.624Z,44.8610
2023-05-26T05:57:24.827Z,44.9010
2023-05-26T05:58:27.014Z,45.0150
2023-05-26T05:59:29.172Z,45.1170
2023-05-26T06:00:31.331Z,45.2020
2023-05-26T06:01:33.535Z,45.2680
2023-05-26T06:02:35.679Z,45.2200
2023-05-26T06:03:37.899Z,45.2680
2023-05-26T06:04:40.058Z,45.2940
2023-05-26T06:05:42.171Z,45.3100
2023-05-26T06:06:44.376Z,45.2740
2023-05-26T06:07:46.542Z,45.2880
2023-05-26T06:08:48.768Z,45.2820
2023-05-26T06:09:50.966Z,45.2700
2023-05-26T06:10:53.169Z,45.2140
2023-05-26T06:11:55.397Z,45.2340
2023-05-26T06:12:57.483Z,45.1790
2023-05-26T06:13:59.675Z,45.2040
2023-05-26T06:14:59.717Z,45.1920
2023-05-26T06:16:01.938Z,45.2400
2023-05-26T06:17:04.250Z,45.2740
2023-05-26T06:18:06.487Z,45.1940
2023-05-26T06:19:08.631Z,45.1860
2023-05-26T06:20:10.885Z,45.2000
2023-05-26T06:21:13.088Z,45.0860
2023-05-26T06:22:15.351Z,44.9160
2023-05-26T06:23:17.553Z,44.7200
2023-05-26T06:24:19.786Z,44.5600
2023-05-26T06:25:22.020Z,44.3730
2023-05-26T06:26:22.119Z,44.1710
2023-05-26T06:27:24.331Z,44.0980
2023-05-26T06:28:26.528Z,44.0620
2023-05-26T06:29:28.776Z,44.0020
2023-05-26T06:30:30.966Z,43.8150
2023-05-26T06:31:33.232Z,43.6920
2023-05-26T06:32:35.494Z,43.6250
2023-05-26T06:33:37.637Z,43.5830
2023-05-26T06:34:39.868Z,43.5750
2023-05-26T06:35:42.074Z,43.4440
2023-05-26T06:36:44.302Z,43.4020
2023-05-26T06:37:46.540Z,43.3350
2023-05-26T06:38:48.666Z,43.1830
2023-05-26T06:39:50.865Z,43.0620
2023-05-26T06:40:53.028Z,43.1530
2023-05-26T06:41:55.213Z,42.9890
2023-05-26T06:42:55.290Z,42.9770
2023-05-26T06:43:57.406Z,42.9610
2023-05-26T06:44:59.612Z,42.9160
2023-05-26T06:46:01.774Z,42.8610
2023-05-26T06:47:04.007Z,42.7440
2023-05-26T06:48:06.237Z,42.7870
2023-05-26T06:49:08.456Z,42.7090
2023-05-26T06:50:10.604Z,42.6300
2023-05-26T06:51:12.796Z,42.5810
2023-05-26T06:52:15.011Z,42.5430
2023-05-26T06:53:17.225Z,42.5040
2023-05-26T06:54:19.349Z,42.5310
2023-05-26T06:55:21.562Z,42.4900
2023-05-26T06:56:23.724Z,42.4640
2023-05-26T06:57:25.918Z,42.4680
2023-05-26T06:58:28.120Z,42.3400
2023-05-26T06:59:30.288Z,42.3030
2023-05-26T07:00:32.484Z,42.2890
2023-05-26T07:01:34.697Z,42.3090
2023-05-26T07:02:36.851Z,42.2610
2023-05-26T07:03:39.092Z,42.2030
2023-05-26T07:04:41.221Z,42.1830
2023-05-26T07:05:48.969Z,42.1240
2023-05-26T07:06:47.305Z,42.1570
2023-05-26T07:07:45.585Z,42.1430
2023-05-26T07:08:47.810Z,42.0330
2023-05-26T07:09:49.985Z,42.0450
2023-05-26T07:10:52.179Z,42.0390
2023-05-26T07:11:54.362Z,42.0330
2023-05-26T07:12:56.560Z,42.0150
2023-05-26T07:13:58.806Z,42.0000
2023-05-26T07:15:00.993Z,41.9880
2023-05-26T07:16:03.253Z,41.9760
2023-05-26T07:17:05.452Z,41.9820
2023-05-26T07:18:07.682Z,41.9620
2023-05-26T07:19:09.880Z,41.9440
2023-05-26T07:20:12.128Z,41.9370
2023-05-26T07:21:14.176Z,41.9430
2023-05-26T07:22:16.367Z,41.9170
2023-05-26T07:23:18.547Z,41.9220
2023-05-26T07:24:20.765Z,41.9550
2023-05-26T07:25:20.800Z,42.0400
2023-05-26T07:26:23.027Z,42.0530
2023-05-26T07:27:25.201Z,42.1490
2023-05-26T07:28:27.383Z,42.1710
2023-05-26T07:29:29.615Z,42.2220
2023-05-26T07:30:31.798Z,42.2360
2023-05-26T07:31:34.014Z,42.2160
2023-05-26T07:32:36.228Z,42.2420
2023-05-26T07:33:38.390Z,42.2420
2023-05-26T07:34:40.618Z,42.2750
2023-05-26T07:35:42.810Z,42.2930
2023-05-26T07:36:45.010Z,42.3510
2023-05-26T07:37:47.221Z,42.3050
2023-05-26T07:38:49.412Z,42.3090
2023-05-26T07:39:51.677Z,42.3210
2023-05-26T07:40:53.833Z,42.3820
2023-05-26T07:41:56.174Z,42.4510
2023-05-26T07:42:58.233Z,42.4850
2023-05-26T07:43:58.293Z,42.4900
2023-05-26T07:45:00.493Z,42.4610
2023-05-26T07:46:02.637Z,42.4670
2023-05-26T07:47:04.797Z,42.4430
2023-05-26T07:48:06.994Z,42.4790
2023-05-26T07:49:09.168Z,42.5580
2023-05-26T07:50:11.386Z,42.5830
2023-05-26T07:51:13.515Z,42.5520
2023-05-26T07:52:15.738Z,42.5890
2023-05-26T07:53:17.912Z,42.6480
2023-05-26T07:54:20.106Z,42.6560
2023-05-26T07:55:22.371Z,42.6970
2023-05-26T07:56:24.559Z,42.7230
2023-05-26T07:57:29.822Z,42.7640
2023-05-26T07:58:28.984Z,42.7760
2023-05-26T07:59:31.193Z,42.8020
2023-05-26T08:00:33.442Z,42.8020
2023-05-26T08:01:35.608Z,42.8190
2023-05-26T08:02:37.888Z,42.8370
2023-05-26T08:03:37.951Z,42.8410
2023-05-26T08:04:40.145Z,42.8710
2023-05-26T08:05:42.460Z,42.8740
2023-05-26T08:06:44.552Z,42.9990
2023-05-26T08:07:46.679Z,42.9620
2023-05-26T08:08:48.837Z,42.9770
2023-05-26T08:09:50.973Z,42.9990
2023-05-26T08:10:53.113Z,43.0380
2023-05-26T08:11:55.189Z,43.0280
2023-05-26T08:12:57.361Z,43.0680
2023-05-26T08:13:59.437Z,43.0680
2023-05-26T08:15:01.567Z,43.0640
2023-05-26T08:16:03.826Z,43.1430
2023-05-26T08:17:05.831Z,43.1690
2023-05-26T08:18:07.952Z,43.2160
2023-05-26T08:19:10.039Z,43.2020
2023-05-26T08:20:12.200Z,43.1870
2023-05-26T08:21:14.442Z,43.2360
2023-05-26T08:22:16.525Z,43.2700
2023-05-26T08:23:18.713Z,43.3170
2023-05-26T08:24:20.959Z,43.3270
2023-05-26T08:25:23.152Z,43.3960
2023-05-26T08:26:23.252Z,43.4710
2023-05-26T08:27:25.458Z,43.4640
2023-05-26T08:29:32.183Z,43.5250
2023-05-26T08:30:34.248Z,43.4710
2023-05-26T08:31:36.539Z,43.5030
2023-05-26T08:32:38.543Z,43.5110
2023-05-26T08:33:40.657Z,43.5470
2023-05-26T08:34:42.763Z,43.5620
2023-05-26T08:35:45.051Z,43.5090
2023-05-26T08:36:47.092Z,43.5980
2023-05-26T08:37:49.228Z,43.6100
2023-05-26T08:38:51.378Z,43.6100
2023-05-26T08:39:53.549Z,43.5760
2023-05-26T08:40:56.960Z,43.6750
2023-05-26T08:41:58.023Z,43.6690
2023-05-26T08:43:00.165Z,43.6430
2023-05-26T08:44:07.508Z,43.6710
2023-05-26T08:45:04.511Z,43.6870
2023-05-26T08:46:06.600Z,43.6590
2023-05-26T08:47:08.842Z,43.6830
2023-05-26T08:48:10.986Z,43.6590
2023-05-26T08:49:13.011Z,43.7270
2023-05-26T08:50:15.190Z,43.7390
2023-05-26T08:51:17.323Z,43.7940
2023-05-26T08:52:19.450Z,43.7880
2023-05-26T08:53:19.366Z,43.7880
2023-05-26T08:54:21.466Z,43.8360
2023-05-26T08:55:23.599Z,43.9070
2023-05-26T08:56:25.695Z,43.9130
2023-05-26T08:57:27.813Z,43.9170
2023-05-26T08:58:29.931Z,43.8970
2023-05-26T08:59:32.111Z,43.9530
2023-05-26T09:00:34.596Z,44.0090
2023-05-26T09:01:36.419Z,43.9850
2023-05-26T09:02:38.667Z,43.9370
2023-05-26T09:03:40.843Z,43.9990
2023-05-26T09:04:42.874Z,43.9730
2023-05-26T09:05:45.040Z,44.0040
2023-05-26T09:06:54.998Z,43.9990
2023-05-26T09:07:49.365Z,44.1450
2023-05-26T09:08:51.489Z,44.2090
2023-05-26T09:09:53.666Z,44.2090
2023-05-26T09:10:55.808Z,44.2010
2023-05-26T09:11:57.948Z,44.1570
2023-05-26T09:13:00.217Z,44.1080
2023-05-26T09:14:02.253Z,44.1120
2023-05-26T09:15:04.390Z,44.1120
2023-05-26T09:16:17.021Z,44.1470
2023-05-26T09:17:08.721Z,44.3050
2023-05-26T09:18:10.884Z,44.3780
2023-05-26T09:19:12.876Z,44.3600
2023-05-26T09:20:15.087Z,44.3600
2023-05-26T09:21:17.133Z,44.3220
2023-05-26T09:23:21.438Z,44.4300
2023-05-26T09:24:23.554Z,44.5300
2023-05-26T09:25:25.699Z,44.4760
2023-05-26T09:26:27.843Z,44.4490
2023-05-26T09:27:29.979Z,44.4890
2023-05-26T09:28:32.146Z,44.4420
2023-05-26T09:29:34.271Z,44.4610
2023-05-26T09:30:36.462Z,44.6210
2023-05-26T09:31:38.637Z,44.6790
2023-05-26T09:32:40.816Z,44.7190
2023-05-26T09:33:44.845Z,44.7130
2023-05-26T09:34:45.087Z,44.7690
2023-05-26T09:35:47.246Z,44.7930
2023-05-26T09:36:49.413Z,44.8010
2023-05-26T09:37:51.554Z,44.7820
2023-05-26T09:38:53.795Z,44.7290
2023-05-26T09:39:55.955Z,44.7420
2023-05-26T09:40:58.151Z,44.7030
2023-05-26T09:42:00.335Z,44.6880
2023-05-26T09:43:02.527Z,44.7980
2023-05-26T09:44:04.750Z,44.7860
2023-05-26T09:45:06.913Z,44.7520
2023-05-26T09:46:09.109Z,44.7700
2023-05-26T09:47:11.310Z,44.7800
2023-05-26T09:48:13.497Z,44.8380
2023-05-26T09:49:15.749Z,44.9240
2023-05-26T09:50:17.904Z,44.8260
2023-05-26T09:51:18.321Z,44.7880
2023-05-26T09:52:20.099Z,44.7700
2023-05-26T09:53:22.294Z,44.8040
2023-05-26T09:54:24.539Z,44.8220
2023-05-26T09:55:26.695Z,44.8320
2023-05-26T09:56:29.870Z,44.8640
2023-05-26T09:57:31.010Z,44.8260
2023-05-26T09:58:33.174Z,44.9380
2023-05-26T09:59:35.385Z,44.8960
2023-05-26T10:00:37.422Z,44.8720
2023-05-26T10:01:39.544Z,44.9280
2023-05-26T10:02:41.705Z,44.9280
2023-05-26T10:03:43.686Z,44.8840
2023-05-26T10:04:45.928Z,44.8600
2023-05-26T10:05:47.951Z,44.8480
2023-05-26T10:06:50.065Z,44.8260
2023-05-26T10:07:52.201Z,44.8040
2023-05-26T10:08:54.325Z,44.8620
2023-05-26T10:09:56.613Z,44.9000
2023-05-26T10:10:58.591Z,44.8380
2023-05-26T10:12:00.752Z,44.8940
2023-05-26T10:13:02.863Z,44.8880
2023-05-26T10:14:04.999Z,44.8960
2023-05-26T10:15:07.174Z,44.8780
2023-05-26T10:16:09.273Z,44.8720
2023-05-26T10:17:11.415Z,44.8840
2023-05-26T10:18:13.583Z,44.9120
2023-05-26T10:19:15.693Z,44.8850
2023-05-26T10:20:17.992Z,44.8780
2023-05-26T10:21:20.060Z,44.8380
2023-05-26T10:22:22.251Z,44.7020
2023-05-26T10:23:22.266Z,44.7240
2023-05-26T10:24:24.456Z,44.9240
2023-05-26T10:25:28.063Z,44.9680
2023-05-26T10:26:28.789Z,45.0180
2023-05-26T10:27:28.816Z,44.9640
2023-05-26T10:28:31.027Z,44.9670
2023-05-26T10:29:33.188Z,44.8090
2023-05-26T10:30:35.446Z,44.6860
2023-05-26T10:31:37.639Z,44.8780
2023-05-26T10:32:39.812Z,44.9000
2023-05-26T10:35:07.900Z,44.9000
2023-05-26T10:36:10.098Z,44.7600
2023-05-26T10:37:12.113Z,44.7880
2023-05-26T10:38:14.273Z,44.8650
2023-05-26T10:39:16.419Z,44.8570
2023-05-26T10:40:18.622Z,44.8030
2023-05-26T10:41:20.797Z,44.6680
2023-05-26T10:42:22.920Z,44.8150
2023-05-26T10:43:25.077Z,44.8270
2023-05-26T10:44:27.261Z,44.6790
2023-05-26T10:45:29.398Z,44.5660
2023-05-26T10:46:31.709Z,44.4540
2023-05-26T10:47:33.765Z,44.4780
2023-05-26T10:48:35.880Z,44.4520
2023-05-26T10:49:35.855Z,44.4020
2023-05-26T10:50:38.020Z,44.3980
2023-05-26T10:51:40.130Z,44.3800
2023-05-26T10:52:42.273Z,44.4180
2023-05-26T10:53:44.396Z,44.3410
2023-05-26T10:54:46.466Z,44.2670
2023-05-26T10:55:48.546Z,44.3340
2023-05-26T10:56:52.979Z,44.3710
2023-05-26T10:57:52.847Z,44.4700
2023-05-26T10:58:54.998Z,44.3920
2023-05-26T10:59:57.155Z,44.2940
2023-05-26T11:00:59.443Z,44.2010
2023-05-26T11:02:01.600Z,44.2270
2023-05-26T11:03:03.825Z,44.2010
2023-05-26T11:04:05.998Z,44.1390
2023-05-26T11:05:08.112Z,44.0140
2023-05-26T11:06:10.293Z,43.9640
2023-05-26T11:07:12.515Z,43.9480
2023-05-26T11:08:14.614Z,43.8850
2023-05-26T11:09:16.768Z,43.8190
2023-05-26T11:10:18.920Z,43.7390
2023-05-26T11:11:20.973Z,43.7030
2023-05-26T11:12:23.130Z,43.6600
2023-05-26T11:13:25.249Z,43.6420
2023-05-26T11:14:27.365Z,43.6100
2023-05-26T11:15:29.551Z,43.6160
2023-05-26T11:16:31.619Z,43.5860
2023-05-26T11:17:33.882Z,43.5690
2023-05-26T11:18:35.864Z,43.3490
2023-05-26T11:19:35.884Z,43.3070
2023-05-26T11:20:38.094Z,43.2220
2023-05-26T11:21:40.234Z,42.8130
2023-05-26T11:22:42.281Z,42.8400
2023-05-26T11:23:44.382Z,42.7970
2023-05-26T11:24:46.512Z,42.7120
2023-05-26T11:25:48.631Z,42.8210
2023-05-26T11:26:50.750Z,42.7120
2023-05-26T11:27:52.904Z,42.6410
2023-05-26T11:28:55.017Z,42.7020
2023-05-26T11:29:57.116Z,42.5170
2023-05-26T11:30:59.272Z,42.6840
2023-05-26T11:32:01.488Z,42.4400
2023-05-26T11:33:03.588Z,42.4180
2023-05-26T11:34:05.701Z,42.5400
2023-05-26T11:35:07.783Z,42.6010
2023-05-26T11:36:09.850Z,42.2880
2023-05-26T11:37:11.960Z,42.2760
2023-05-26T11:38:14.101Z,42.2940
2023-05-26T11:39:16.219Z,42.4570
2023-05-26T11:40:18.352Z,42.5060
2023-05-26T11:41:20.504Z,42.5360
2023-05-26T11:42:22.664Z,42.5360
2023-05-26T11:43:24.999Z,42.5550
2023-05-26T11:44:27.044Z,42.5670
2023-05-26T11:45:29.260Z,42.5970
2023-05-26T11:46:29.350Z,42.3840
2023-05-26T11:47:31.534Z,42.4570
2023-05-26T11:48:33.747Z,42.5360
2023-05-26T11:49:35.931Z,42.5730
2023-05-26T11:50:38.080Z,42.4110
2023-05-26T11:51:40.174Z,42.5150
2023-05-26T11:52:42.317Z,42.5630
2023-05-26T11:53:44.535Z,42.5750
2023-05-26T11:54:46.574Z,42.4590
2023-05-26T11:55:48.710Z,42.5380
2023-05-26T11:56:50.839Z,42.5570
2023-05-26T11:57:52.981Z,42.5080
2023-05-26T11:58:55.138Z,42.3800
2023-05-26T11:59:57.233Z,42.4590
2023-05-26T12:00:59.391Z,42.4740
2023-05-26T12:02:01.599Z,42.5100
2023-05-26T12:03:03.758Z,42.4840
2023-05-26T12:04:06.115Z,42.5140
2023-05-26T12:05:08.070Z,42.5290
2023-05-26T12:06:10.215Z,42.5350
2023-05-26T12:07:12.320Z,42.5410
2023-05-26T12:08:14.528Z,42.5530
2023-05-26T12:10:14.939Z,42.6360
2023-05-26T12:11:16.841Z,42.6080
2023-05-26T12:12:18.994Z,42.5840
2023-05-26T12:13:21.162Z,42.5590
2023-05-26T12:14:23.695Z,42.5650
2023-05-26T12:15:25.588Z,42.5690
2023-05-26T12:16:27.734Z,42.5740
2023-05-26T12:17:29.947Z,42.5800
2023-05-26T12:18:32.523Z,42.5760
2023-05-26T12:19:34.281Z,42.5860
2023-05-26T12:21:05.421Z,42.5620
2023-05-26T12:21:36.565Z,42.5900
2023-05-26T12:22:38.747Z,42.5550
2023-05-26T12:23:40.945Z,42.5210
2023-05-26T12:24:43.102Z,42.4810
2023-05-26T12:25:45.257Z,42.4630
2023-05-26T12:26:47.395Z,42.4990
2023-05-26T12:27:49.582Z,42.4600
2023-05-26T12:28:51.751Z,42.4600
2023-05-26T12:29:53.863Z,42.4750
2023-05-26T12:30:58.105Z,42.4440
2023-05-26T12:31:58.280Z,42.4840
2023-05-26T12:33:00.333Z,42.4690
2023-05-26T12:34:02.453Z,42.4200
2023-05-26T12:35:04.591Z,42.3870
2023-05-26T12:36:06.772Z,42.3710
2023-05-26T12:37:08.916Z,42.3350
2023-05-26T12:38:11.053Z,42.3220